sensor_id;sensor_type;location;lat;lon;timestamp;P1;durP1;ratioP1;P2;durP2;ratioP2
62419;SDS011;48460;51.616;5.426;2023-03-21T13:47:01;7.97;;;4.30;;
62419;SDS011;48460;51.616;5.426;2023-03-21T13:53:35;9.98;;;4.85;;
62419;SDS011;48460;51.616;5.426;2023-03-21T14:10:37;7.82;;;4.15;;
62419;SDS011;48460;51.616;5.426;2023-03-21T14:23:14;10.15;;;4.20;;
62419;SDS011;48460;51.616;5.426;2023-03-21T14:26:05;10.15;;;4.32;;
62419;SDS011;48460;51.616;5.426;2023-03-21T14:28:41;12.20;;;4.70;;
62419;SDS011;48460;51.616;5.426;2023-03-21T14:41:27;10.68;;;4.07;;
62419;SDS011;48460;51.616;5.426;2023-03-21T15:02:10;9.70;;;4.35;;
62419;SDS011;48460;51.616;5.426;2023-03-21T15:05:14;7.93;;;4.18;;
62419;SDS011;48460;51.616;5.426;2023-03-21T15:08:36;5.93;;;3.83;;
62419;SDS011;48460;51.616;5.426;2023-03-21T15:11:19;13.05;;;4.20;;
62419;SDS011;48460;51.616;5.426;2023-03-21T15:14:43;10.40;;;3.78;;
62419;SDS011;48460;51.616;5.426;2023-03-21T15:17:12;8.80;;;3.88;;
62419;SDS011;48460;51.616;5.426;2023-03-21T15:20:00;9.57;;;3.92;;
62419;SDS011;48460;51.616;5.426;2023-03-21T15:23:27;8.07;;;3.88;;
62419;SDS011;48460;51.616;5.426;2023-03-21T15:36:01;6.63;;;4.13;;
62419;SDS011;48460;51.616;5.426;2023-03-21T15:42:43;6.78;;;3.90;;
62419;SDS011;48460;51.616;5.426;2023-03-21T15:45:32;7.85;;;4.25;;
62419;SDS011;48460;51.616;5.426;2023-03-21T16:02:23;10.15;;;4.30;;
62419;SDS011;48460;51.616;5.426;2023-03-21T16:05:01;8.35;;;4.15;;
62419;SDS011;48460;51.616;5.426;2023-03-21T16:07:55;7.88;;;4.00;;
62419;SDS011;48460;51.616;5.426;2023-03-21T16:10:35;11.60;;;4.28;;
62419;SDS011;48460;51.616;5.426;2023-03-21T16:19:33;7.68;;;4.32;;
62419;SDS011;48460;51.616;5.426;2023-03-21T16:22:08;10.10;;;4.45;;
62419;SDS011;48460;51.616;5.426;2023-03-21T16:24:46;9.55;;;4.10;;
62419;SDS011;48460;51.616;5.426;2023-03-21T16:30:00;10.50;;;4.55;;
62419;SDS011;48460;51.616;5.426;2023-03-21T16:32:49;9.07;;;4.20;;
62419;SDS011;48460;51.616;5.426;2023-03-21T16:35:40;10.70;;;4.65;;
62419;SDS011;48460;51.616;5.426;2023-03-21T16:38:23;9.27;;;4.03;;
62419;SDS011;48460;51.616;5.426;2023-03-21T16:41:09;10.13;;;4.78;;
62419;SDS011;48460;51.616;5.426;2023-03-21T16:43:51;9.35;;;5.07;;
62419;SDS011;48460;51.616;5.426;2023-03-21T16:49:37;9.10;;;4.90;;
62419;SDS011;48460;51.616;5.426;2023-03-21T16:52:13;13.02;;;5.10;;
62419;SDS011;48460;51.616;5.426;2023-03-21T16:55:01;12.52;;;5.40;;
62419;SDS011;48460;51.616;5.426;2023-03-21T16:57:32;8.90;;;5.45;;
62419;SDS011;48460;51.616;5.426;2023-03-21T17:00:33;10.32;;;4.95;;
62419;SDS011;48460;51.616;5.426;2023-03-21T17:03:00;11.70;;;5.20;;
62419;SDS011;48460;51.616;5.426;2023-03-21T17:05:44;10.73;;;5.22;;
62419;SDS011;48460;51.616;5.426;2023-03-21T17:08:33;9.02;;;5.63;;
62419;SDS011;48460;51.616;5.426;2023-03-21T17:11:19;9.75;;;5.00;;
62419;SDS011;48460;51.616;5.426;2023-03-21T17:14:13;8.85;;;5.13;;
62419;SDS011;48460;51.616;5.426;2023-03-21T17:16:59;8.85;;;5.10;;
62419;SDS011;48460;51.616;5.426;2023-03-21T17:19:47;9.15;;;5.18;;
62419;SDS011;48460;51.616;5.426;2023-03-21T17:22:26;11.27;;;5.70;;
62419;SDS011;48460;51.616;5.426;2023-03-21T17:24:53;10.88;;;5.88;;
62419;SDS011;48460;51.616;5.426;2023-03-21T17:27:48;8.88;;;5.78;;
62419;SDS011;48460;51.616;5.426;2023-03-21T17:30:41;9.52;;;5.80;;
62419;SDS011;48460;51.616;5.426;2023-03-21T17:33:41;9.10;;;5.72;;
62419;SDS011;48460;51.616;5.426;2023-03-21T17:36:22;8.95;;;5.72;;
62419;SDS011;48460;51.616;5.426;2023-03-21T17:39:01;10.75;;;6.00;;
62419;SDS011;48460;51.616;5.426;2023-03-21T17:50:47;10.23;;;5.57;;
62419;SDS011;48460;51.616;5.426;2023-03-21T17:53:20;11.63;;;6.10;;
62419;SDS011;48460;51.616;5.426;2023-03-21T17:55:50;13.13;;;5.93;;
62419;SDS011;48460;51.616;5.426;2023-03-21T17:58:36;12.27;;;5.82;;
62419;SDS011;48460;51.616;5.426;2023-03-21T18:01:02;13.10;;;6.50;;
62419;SDS011;48460;51.616;5.426;2023-03-21T18:03:28;11.98;;;6.10;;
62419;SDS011;48460;51.616;5.426;2023-03-21T18:06:10;14.55;;;6.40;;
62419;SDS011;48460;51.616;5.426;2023-03-21T18:08:44;8.20;;;5.25;;
62419;SDS011;48460;51.616;5.426;2023-03-21T18:11:15;10.25;;;5.80;;
62419;SDS011;48460;51.616;5.426;2023-03-21T18:13:49;8.00;;;5.35;;
62419;SDS011;48460;51.616;5.426;2023-03-21T18:18:51;9.40;;;5.65;;
62419;SDS011;48460;51.616;5.426;2023-03-21T18:21:27;9.18;;;5.80;;
62419;SDS011;48460;51.616;5.426;2023-03-21T18:24:05;9.13;;;6.03;;
62419;SDS011;48460;51.616;5.426;2023-03-21T18:26:37;11.70;;;6.15;;
62419;SDS011;48460;51.616;5.426;2023-03-21T18:29:11;10.85;;;5.90;;
62419;SDS011;48460;51.616;5.426;2023-03-21T18:31:46;11.77;;;6.80;;
62419;SDS011;48460;51.616;5.426;2023-03-21T18:34:28;9.57;;;6.13;;
62419;SDS011;48460;51.616;5.426;2023-03-21T18:37:05;10.80;;;6.72;;
62419;SDS011;48460;51.616;5.426;2023-03-21T18:39:35;10.45;;;5.75;;
62419;SDS011;48460;51.616;5.426;2023-03-21T18:44:37;11.40;;;5.32;;
62419;SDS011;48460;51.616;5.426;2023-03-21T18:47:13;9.98;;;5.50;;
62419;SDS011;48460;51.616;5.426;2023-03-21T18:49:39;10.52;;;5.55;;
62419;SDS011;48460;51.616;5.426;2023-03-21T18:52:35;10.85;;;5.22;;
62419;SDS011;48460;51.616;5.426;2023-03-21T18:55:02;11.32;;;5.50;;
62419;SDS011;48460;51.616;5.426;2023-03-21T18:57:49;10.45;;;5.47;;
62419;SDS011;48460;51.616;5.426;2023-03-21T19:00:19;12.50;;;6.03;;
62419;SDS011;48460;51.616;5.426;2023-03-21T19:02:57;12.43;;;5.65;;
62419;SDS011;48460;51.616;5.426;2023-03-21T19:05:27;10.63;;;5.60;;
62419;SDS011;48460;51.616;5.426;2023-03-21T19:07:55;8.85;;;5.68;;
62419;SDS011;48460;51.616;5.426;2023-03-21T19:10:27;8.32;;;5.65;;
62419;SDS011;48460;51.616;5.426;2023-03-21T19:13:01;10.23;;;5.65;;
62419;SDS011;48460;51.616;5.426;2023-03-21T19:15:38;8.38;;;5.25;;
62419;SDS011;48460;51.616;5.426;2023-03-21T19:18:08;9.65;;;5.68;;
62419;SDS011;48460;51.616;5.426;2023-03-21T19:20:53;8.85;;;5.78;;
62419;SDS011;48460;51.616;5.426;2023-03-21T19:28:49;7.80;;;5.50;;
62419;SDS011;48460;51.616;5.426;2023-03-21T19:34:32;8.75;;;5.72;;
62419;SDS011;48460;51.616;5.426;2023-03-21T19:37:01;7.97;;;5.95;;
62419;SDS011;48460;51.616;5.426;2023-03-21T19:42:31;8.82;;;5.97;;
62419;SDS011;48460;51.616;5.426;2023-03-21T19:45:17;9.43;;;6.20;;
62419;SDS011;48460;51.616;5.426;2023-03-21T19:50:53;11.27;;;6.40;;
62419;SDS011;48460;51.616;5.426;2023-03-21T19:53:43;9.50;;;6.43;;
62419;SDS011;48460;51.616;5.426;2023-03-21T19:56:38;9.45;;;6.30;;
62419;SDS011;48460;51.616;5.426;2023-03-21T19:59:35;10.00;;;6.65;;
62419;SDS011;48460;51.616;5.426;2023-03-21T20:05:12;10.52;;;6.68;;
62419;SDS011;48460;51.616;5.426;2023-03-21T20:07:54;15.13;;;7.53;;
62419;SDS011;48460;51.616;5.426;2023-03-21T20:10:30;15.23;;;7.50;;
62419;SDS011;48460;51.616;5.426;2023-03-21T20:13:10;14.32;;;7.97;;
62419;SDS011;48460;51.616;5.426;2023-03-21T20:16:25;13.18;;;7.65;;
62419;SDS011;48460;51.616;5.426;2023-03-21T20:19:09;15.63;;;8.80;;
62419;SDS011;48460;51.616;5.426;2023-03-21T20:22:14;15.50;;;8.45;;
62419;SDS011;48460;51.616;5.426;2023-03-21T20:27:36;14.77;;;8.52;;
62419;SDS011;48460;51.616;5.426;2023-03-21T20:30:21;15.30;;;8.00;;
62419;SDS011;48460;51.616;5.426;2023-03-21T20:32:50;17.05;;;9.18;;
62419;SDS011;48460;51.616;5.426;2023-03-21T20:35:20;17.95;;;9.32;;
62419;SDS011;48460;51.616;5.426;2023-03-21T20:37:48;17.38;;;8.93;;
62419;SDS011;48460;51.616;5.426;2023-03-21T20:40:38;15.40;;;9.35;;
62419;SDS011;48460;51.616;5.426;2023-03-21T20:43:32;22.38;;;9.55;;
62419;SDS011;48460;51.616;5.426;2023-03-21T20:46:19;18.00;;;9.48;;
62419;SDS011;48460;51.616;5.426;2023-03-21T20:52:08;20.23;;;10.57;;
62419;SDS011;48460;51.616;5.426;2023-03-21T20:54:36;21.88;;;10.25;;
62419;SDS011;48460;51.616;5.426;2023-03-21T20:57:34;18.35;;;10.55;;
62419;SDS011;48460;51.616;5.426;2023-03-21T21:03:31;17.42;;;9.43;;
62419;SDS011;48460;51.616;5.426;2023-03-21T21:12:57;24.13;;;11.23;;
62419;SDS011;48460;51.616;5.426;2023-03-21T21:15:25;20.90;;;11.20;;
62419;SDS011;48460;51.616;5.426;2023-03-21T21:17:51;20.20;;;11.45;;
62419;SDS011;48460;51.616;5.426;2023-03-21T21:20:28;23.85;;;11.48;;
62419;SDS011;48460;51.616;5.426;2023-03-21T21:22:56;18.38;;;10.10;;
62419;SDS011;48460;51.616;5.426;2023-03-21T21:25:26;23.85;;;10.73;;
62419;SDS011;48460;51.616;5.426;2023-03-21T21:27:56;19.85;;;10.02;;
62419;SDS011;48460;51.616;5.426;2023-03-21T21:30:28;16.90;;;9.35;;
62419;SDS011;48460;51.616;5.426;2023-03-21T21:33:00;18.83;;;9.60;;
62419;SDS011;48460;51.616;5.426;2023-03-21T21:39:20;17.48;;;9.07;;
62419;SDS011;48460;51.616;5.426;2023-03-21T21:45:11;16.15;;;8.95;;
62419;SDS011;48460;51.616;5.426;2023-03-21T21:51:04;15.20;;;8.13;;
62419;SDS011;48460;51.616;5.426;2023-03-21T21:54:00;15.73;;;7.65;;
62419;SDS011;48460;51.616;5.426;2023-03-21T21:56:31;17.13;;;7.50;;
62419;SDS011;48460;51.616;5.426;2023-03-21T21:59:10;14.00;;;7.07;;
62419;SDS011;48460;51.616;5.426;2023-03-21T22:01:40;14.95;;;6.50;;
62419;SDS011;48460;51.616;5.426;2023-03-21T22:04:07;16.10;;;6.82;;
62419;SDS011;48460;51.616;5.426;2023-03-21T22:06:35;17.10;;;6.57;;
62419;SDS011;48460;51.616;5.426;2023-03-21T22:09:03;15.82;;;7.30;;
62419;SDS011;48460;51.616;5.426;2023-03-21T22:18:20;14.60;;;6.25;;
62419;SDS011;48460;51.616;5.426;2023-03-21T22:31:18;15.68;;;5.00;;
62419;SDS011;48460;51.616;5.426;2023-03-21T22:33:46;9.63;;;4.18;;
62419;SDS011;48460;51.616;5.426;2023-03-21T22:36:12;7.72;;;4.05;;
62419;SDS011;48460;51.616;5.426;2023-03-21T22:38:39;13.43;;;4.43;;
62419;SDS011;48460;51.616;5.426;2023-03-21T22:41:06;8.73;;;4.13;;
62419;SDS011;48460;51.616;5.426;2023-03-21T22:44:11;14.05;;;4.13;;
62419;SDS011;48460;51.616;5.426;2023-03-21T22:46:37;9.02;;;3.83;;
62419;SDS011;48460;51.616;5.426;2023-03-21T22:49:23;17.23;;;4.35;;
62419;SDS011;48460;51.616;5.426;2023-03-21T22:52:31;10.65;;;3.85;;
62419;SDS011;48460;51.616;5.426;2023-03-21T22:58:20;13.23;;;4.30;;
62419;SDS011;48460;51.616;5.426;2023-03-21T23:00:51;12.63;;;3.90;;
62419;SDS011;48460;51.616;5.426;2023-03-21T23:05:47;9.85;;;3.70;;
62419;SDS011;48460;51.616;5.426;2023-03-21T23:08:17;13.40;;;3.92;;
62419;SDS011;48460;51.616;5.426;2023-03-21T23:10:51;11.23;;;3.70;;
62419;SDS011;48460;51.616;5.426;2023-03-21T23:13:17;10.75;;;3.70;;
62419;SDS011;48460;51.616;5.426;2023-03-21T23:15:54;12.80;;;3.90;;
62419;SDS011;48460;51.616;5.426;2023-03-21T23:18:31;10.48;;;3.42;;
62419;SDS011;48460;51.616;5.426;2023-03-21T23:24:22;15.35;;;4.10;;
62419;SDS011;48460;51.616;5.426;2023-03-21T23:26:51;8.27;;;3.70;;
62419;SDS011;48460;51.616;5.426;2023-03-21T23:29:20;11.45;;;3.63;;
62419;SDS011;48460;51.616;5.426;2023-03-21T23:31:50;14.00;;;4.20;;
62419;SDS011;48460;51.616;5.426;2023-03-21T23:34:19;14.23;;;4.03;;
62419;SDS011;48460;51.616;5.426;2023-03-21T23:36:47;12.68;;;4.13;;
62419;SDS011;48460;51.616;5.426;2023-03-21T23:39:20;8.45;;;3.65;;
62419;SDS011;48460;51.616;5.426;2023-03-21T23:41:48;11.88;;;3.90;;
62419;SDS011;48460;51.616;5.426;2023-03-21T23:44:34;11.90;;;4.05;;
62419;SDS011;48460;51.616;5.426;2023-03-21T23:53:17;13.73;;;4.30;;
62419;SDS011;48460;51.616;5.426;2023-03-21T23:55:43;19.20;;;5.05;;
62419;SDS011;48460;51.616;5.426;2023-03-21T23:58:16;9.20;;;4.05;;
